createdAt,value
2022-11-20T00:01:06.185Z,92.50
2022-11-20T00:03:34.499Z,92.20
2022-11-20T00:06:05.580Z,92.50
2022-11-20T00:08:33.291Z,92.10
2022-11-20T00:11:05.065Z,92.30
2022-11-20T00:13:33.565Z,92.40
2022-11-20T00:16:01.633Z,92.30
2022-11-20T00:18:29.431Z,92.30
2022-11-20T00:21:07.653Z,92.50
2022-11-20T00:23:36.267Z,92.20
2022-11-20T00:26:04.841Z,92.20
2022-11-20T00:28:32.524Z,92.00
2022-11-20T00:31:10.329Z,91.90
2022-11-20T00:33:37.899Z,92.20
2022-11-20T00:36:07.710Z,91.60
2022-11-20T00:38:35.469Z,91.70
2022-11-20T00:41:04.729Z,91.60
2022-11-20T00:43:32.368Z,91.60
2022-11-20T00:46:08.388Z,91.80
2022-11-20T00:48:36.720Z,91.50
2022-11-20T00:51:04.582Z,91.30
2022-11-20T00:53:32.474Z,91.40
2022-11-20T00:56:08.719Z,91.20
2022-11-20T00:58:37.485Z,90.90
2022-11-20T01:01:08.839Z,91.00
2022-11-20T01:03:44.531Z,90.80
2022-11-20T01:06:16.997Z,90.80
2022-11-20T01:08:45.108Z,90.70
2022-11-20T01:11:20.551Z,90.80
2022-11-20T01:13:49.893Z,90.70
2022-11-20T01:16:21.639Z,90.80
2022-11-20T01:18:52.040Z,91.00
2022-11-20T01:21:24.062Z,91.40
2022-11-20T01:23:52.220Z,91.00
2022-11-20T01:26:21.672Z,91.10
2022-11-20T01:28:49.374Z,91.00
2022-11-20T01:31:17.118Z,90.90
2022-11-20T01:33:45.994Z,91.00
2022-11-20T01:36:15.053Z,90.50
2022-11-20T01:38:42.815Z,90.60
2022-11-20T01:41:11.326Z,90.80
2022-11-20T01:43:39.168Z,90.40
2022-11-20T01:46:08.288Z,90.50
2022-11-20T01:48:53.574Z,90.70
2022-11-20T01:51:41.155Z,90.70
2022-11-20T01:54:10.889Z,90.60
2022-11-20T01:56:40.748Z,90.40
2022-11-20T01:59:10.353Z,90.30
2022-11-20T02:01:39.529Z,90.30
2022-11-20T02:04:09.351Z,90.10
2022-11-20T02:06:40.485Z,89.80
2022-11-20T02:09:08.307Z,89.30
2022-11-20T02:11:35.858Z,89.30
2022-11-20T02:14:03.454Z,89.50
2022-11-20T02:16:33.640Z,89.40
2022-11-20T02:19:03.685Z,89.20
2022-11-20T02:24:31.957Z,88.20
2022-11-20T02:27:11.578Z,87.80
2022-11-20T02:29:39.470Z,87.40
2022-11-20T02:32:08.203Z,87.30
2022-11-20T02:34:37.742Z,86.80
2022-11-20T02:37:05.483Z,86.80
2022-11-20T02:39:33.382Z,86.70
2022-11-20T02:42:02.497Z,86.20
2022-11-20T02:44:30.886Z,86.30
2022-11-20T05:46:43.096Z,78.10
2022-11-20T05:49:11.835Z,76.60
2022-11-20T05:51:39.309Z,77.30
2022-11-20T05:54:08.147Z,74.80
2022-11-20T05:56:37.135Z,75.60
2022-11-20T05:59:04.640Z,75.70
2022-11-20T06:01:32.276Z,72.70
2022-11-20T06:04:00.656Z,74.80
2022-11-20T06:06:28.287Z,72.50
2022-11-20T06:08:56.445Z,69.50
2022-11-20T06:11:24.010Z,74.80
2022-11-20T06:13:51.626Z,72.70
2022-11-20T06:16:20.438Z,72.00
2022-11-20T06:18:48.186Z,74.60
2022-11-20T06:21:20.093Z,72.20
2022-11-20T06:23:47.954Z,71.20
2022-11-20T06:26:19.676Z,74.10
2022-11-20T06:28:47.292Z,74.70
2022-11-20T06:31:15.905Z,69.90
2022-11-20T06:33:44.978Z,70.30
2022-11-20T06:36:13.965Z,72.50
2022-11-20T06:38:45.010Z,73.60
2022-11-20T06:41:16.849Z,75.30
2022-11-20T06:43:44.994Z,75.20
2022-11-20T06:46:14.332Z,75.50
2022-11-20T06:48:42.124Z,74.70
2022-11-20T06:51:10.532Z,75.10
2022-11-20T06:53:38.482Z,74.50
2022-11-20T06:56:06.648Z,74.90
2022-11-20T06:58:34.865Z,74.20
2022-11-20T07:01:07.551Z,76.20
2022-11-20T07:03:37.520Z,76.10
2022-11-20T07:06:07.239Z,73.10
2022-11-20T07:08:37.725Z,72.50
2022-11-20T07:11:07.539Z,71.70
2022-11-20T07:13:35.921Z,73.80
2022-11-20T07:16:08.377Z,73.10
2022-11-20T07:18:36.388Z,72.90
2022-11-20T07:21:04.750Z,73.60
2022-11-20T07:23:32.540Z,73.70
2022-11-20T07:26:03.671Z,75.10
2022-11-20T07:28:31.490Z,74.40
2022-11-20T07:30:59.110Z,72.40
2022-11-20T07:33:26.953Z,73.20
2022-11-20T07:35:55.247Z,73.50
2022-11-20T07:38:22.743Z,74.20
2022-11-20T07:40:57.514Z,74.40
2022-11-20T07:43:26.449Z,75.20
2022-11-20T07:45:56.316Z,72.30
2022-11-20T07:48:24.179Z,72.20
2022-11-20T07:50:54.881Z,73.60
2022-11-20T07:53:22.983Z,71.00
2022-11-20T07:55:53.771Z,72.80
2022-11-20T07:58:22.872Z,73.10
2022-11-20T08:00:50.739Z,72.10
2022-11-20T08:03:24.396Z,72.00
2022-11-20T08:05:53.266Z,71.10
2022-11-20T08:08:21.983Z,71.00
2022-11-20T08:10:49.593Z,72.50
2022-11-20T08:13:35.629Z,70.10
2022-11-20T08:16:03.244Z,73.40
2022-11-20T08:18:32.840Z,72.40
2022-11-20T08:21:05.100Z,73.40
2022-11-20T08:23:36.375Z,72.30
2022-11-20T08:26:04.685Z,73.50
2022-11-20T08:28:32.705Z,73.00
2022-11-20T08:31:01.361Z,73.20
2022-11-20T08:33:30.891Z,73.00
2022-11-20T08:36:03.069Z,73.10
2022-11-20T08:38:30.877Z,71.80
2022-11-20T08:41:17.556Z,72.70
2022-11-20T08:43:45.366Z,71.80
2022-11-20T08:46:13.881Z,71.10
2022-11-20T08:48:42.313Z,70.70
2022-11-20T08:51:10.400Z,68.50
2022-11-20T08:53:38.777Z,72.00
2022-11-20T08:56:06.646Z,71.60
2022-11-20T08:58:55.075Z,71.50
2022-11-20T09:01:22.616Z,71.20
2022-11-20T09:03:51.971Z,70.30
2022-11-20T09:06:19.919Z,70.90
2022-11-20T09:08:47.506Z,70.70
2022-11-20T09:11:17.473Z,71.00
2022-11-20T09:13:44.997Z,70.40
2022-11-20T09:16:13.624Z,70.70
2022-11-20T09:18:41.378Z,70.50
2022-11-20T09:21:14.118Z,69.20
2022-11-20T09:23:41.961Z,70.00
2022-11-20T09:26:13.556Z,70.60
2022-11-20T09:28:41.574Z,69.90
2022-11-20T09:31:10.020Z,69.40
2022-11-20T09:33:38.382Z,69.30
2022-11-20T09:36:06.060Z,68.80
2022-11-20T09:38:33.613Z,70.00
2022-11-20T09:41:06.889Z,69.40
2022-11-20T09:43:53.234Z,69.10
2022-11-20T09:46:34.665Z,69.50
2022-11-20T09:49:29.014Z,69.30
2022-11-20T09:52:09.280Z,69.50
2022-11-20T09:54:39.550Z,70.40
2022-11-20T09:57:11.430Z,70.10
2022-11-20T09:59:42.253Z,70.20
2022-11-20T10:02:28.192Z,71.20
2022-11-20T10:05:04.333Z,70.90
2022-11-20T10:07:36.874Z,71.00
2022-11-20T10:10:05.038Z,71.20
2022-11-20T10:12:44.340Z,71.90
2022-11-20T10:21:20.282Z,72.70
2022-11-20T10:23:56.814Z,72.90
2022-11-20T10:26:33.928Z,73.20
2022-11-20T10:29:27.716Z,73.50
2022-11-20T10:32:01.807Z,73.60
2022-11-20T10:34:48.631Z,73.70
2022-11-20T10:37:19.468Z,73.90
2022-11-20T10:39:49.785Z,74.00
2022-11-20T10:42:28.173Z,74.70
2022-11-20T10:45:06.145Z,74.30
2022-11-20T10:47:34.682Z,74.30
2022-11-20T10:50:07.829Z,74.40
2022-11-20T10:52:41.431Z,74.70
2022-11-20T10:55:15.382Z,74.50
2022-11-20T10:58:01.579Z,75.00
2022-11-20T11:00:32.028Z,74.90
2022-11-20T11:03:05.715Z,74.90
2022-11-20T11:05:37.421Z,75.10
2022-11-20T11:08:06.334Z,75.10
2022-11-20T11:10:49.530Z,75.10
2022-11-20T11:13:21.758Z,75.10
2022-11-20T11:15:50.160Z,75.30
2022-11-20T11:18:31.488Z,75.20
2022-11-20T11:21:00.608Z,75.30
2022-11-20T11:23:31.298Z,75.40
2022-11-20T11:26:01.728Z,75.40
2022-11-20T11:28:30.526Z,75.40
2022-11-20T11:30:58.468Z,75.30
2022-11-20T11:33:27.271Z,75.50
2022-11-20T11:35:59.392Z,75.80
2022-11-20T11:38:37.757Z,75.70
2022-11-20T11:41:10.916Z,75.60
2022-11-20T11:43:57.401Z,75.50
2022-11-20T11:46:30.846Z,75.50
2022-11-20T11:48:59.421Z,75.50
2022-11-20T11:51:32.275Z,75.60
2022-11-20T11:54:01.719Z,75.40
2022-11-20T11:56:29.972Z,75.30
2022-11-20T11:59:00.741Z,75.30
2022-11-20T12:01:46.117Z,75.30
2022-11-20T12:04:24.855Z,75.40
2022-11-20T12:07:00.418Z,75.50
2022-11-20T12:09:36.443Z,75.70
2022-11-20T12:12:10.351Z,75.70
2022-11-20T12:14:40.423Z,75.80
2022-11-20T12:17:11.539Z,75.70
2022-11-20T12:19:39.201Z,75.80
2022-11-20T12:22:26.142Z,76.00
2022-11-20T12:24:56.605Z,75.60
2022-11-20T12:27:43.245Z,75.90
2022-11-20T12:30:12.733Z,76.00
2022-11-20T12:33:00.057Z,76.30
2022-11-20T12:35:46.763Z,77.00
2022-11-20T12:38:32.772Z,76.30
2022-11-20T12:41:09.426Z,76.30
2022-11-20T12:44:11.643Z,76.40
2022-11-20T12:46:49.628Z,76.50
2022-11-20T12:49:17.140Z,76.50
2022-11-20T12:51:53.463Z,76.60
2022-11-20T12:54:39.507Z,76.60
2022-11-20T12:57:09.976Z,76.70
2022-11-20T12:59:56.149Z,76.70
2022-11-20T13:02:23.612Z,76.80
2022-11-20T13:04:59.869Z,76.90
2022-11-20T13:07:30.361Z,77.50
2022-11-20T13:09:58.407Z,76.90
2022-11-20T13:12:30.995Z,77.00
2022-11-20T13:15:08.028Z,77.00
2022-11-20T13:17:45.401Z,77.10
2022-11-20T13:20:19.151Z,77.20
2022-11-20T13:22:56.626Z,77.20
2022-11-20T13:25:25.968Z,77.30
2022-11-20T13:27:55.324Z,77.40
2022-11-20T13:30:27.323Z,77.40
2022-11-20T13:32:54.913Z,77.50
2022-11-20T13:35:26.977Z,77.60
2022-11-20T13:38:13.755Z,77.70
2022-11-20T13:41:21.441Z,77.80
2022-11-20T13:43:49.524Z,77.90
2022-11-20T13:46:17.062Z,78.10
2022-11-20T13:48:48.702Z,78.20
2022-11-20T13:51:29.834Z,78.40
2022-11-20T13:54:03.619Z,78.60
2022-11-20T13:56:33.885Z,78.70
2022-11-20T13:59:14.769Z,78.80
2022-11-20T14:01:45.780Z,78.90
2022-11-20T14:04:19.249Z,79.00
2022-11-20T14:06:48.303Z,79.40
2022-11-20T14:09:29.437Z,79.40
2022-11-20T14:11:56.987Z,79.50
2022-11-20T14:14:28.441Z,79.70
2022-11-20T14:17:09.045Z,79.70
2022-11-20T14:19:38.384Z,80.00
2022-11-20T14:22:21.937Z,80.00
2022-11-20T14:25:19.723Z,80.10
2022-11-20T14:27:57.753Z,80.30
2022-11-20T14:30:26.638Z,80.30
2022-11-20T14:32:59.942Z,80.60
2022-11-20T14:35:29.273Z,80.50
2022-11-20T14:37:57.526Z,80.70
2022-11-20T14:40:27.817Z,80.70
2022-11-20T14:42:56.295Z,80.60
2022-11-20T14:45:24.313Z,80.80
2022-11-20T14:47:53.077Z,80.80
2022-11-20T14:50:23.407Z,80.90
2022-11-20T14:52:55.384Z,80.80
2022-11-20T14:55:39.775Z,80.80
2022-11-20T14:58:24.313Z,80.80
2022-11-20T15:01:02.595Z,80.90
2022-11-20T15:03:37.173Z,81.30
2022-11-20T15:06:05.238Z,81.00
2022-11-20T15:08:32.892Z,80.90
2022-11-20T15:11:00.453Z,81.00
2022-11-20T15:13:31.518Z,81.00
2022-11-20T15:16:00.240Z,81.00
2022-11-20T15:18:33.537Z,81.00
2022-11-20T15:21:05.060Z,81.20
2022-11-20T15:23:33.349Z,81.30
2022-11-20T15:26:00.888Z,81.50
2022-11-20T15:28:38.649Z,81.50
2022-11-20T15:31:07.434Z,81.40
2022-11-20T15:33:35.802Z,81.60
2022-11-20T15:36:03.335Z,81.20
2022-11-20T15:38:30.899Z,81.70
2022-11-20T15:40:58.426Z,81.60
2022-11-20T15:43:26.141Z,81.60
2022-11-20T15:46:14.118Z,81.70
2022-11-20T15:48:47.584Z,81.90
2022-11-20T15:51:31.684Z,82.20
2022-11-20T15:53:59.365Z,81.90
2022-11-20T15:56:27.044Z,81.90
2022-11-20T15:58:54.653Z,82.20
2022-11-20T16:01:26.046Z,82.20
2022-11-20T16:03:53.589Z,82.50
2022-11-20T16:06:22.103Z,82.50
2022-11-20T16:08:49.651Z,82.70
2022-11-20T16:11:19.104Z,82.70
2022-11-20T16:14:04.717Z,83.00
2022-11-20T16:16:37.065Z,82.90
2022-11-20T16:19:05.762Z,82.90
2022-11-20T16:21:33.486Z,83.30
2022-11-20T16:24:02.298Z,83.50
2022-11-20T16:26:30.249Z,83.30
2022-11-20T16:28:58.098Z,83.60
2022-11-20T16:31:26.237Z,83.50
2022-11-20T16:33:55.292Z,83.30
2022-11-20T16:36:23.627Z,83.20
2022-11-20T16:38:55.161Z,83.20
2022-11-20T16:41:23.593Z,83.70
2022-11-20T16:43:53.090Z,83.50
2022-11-20T16:46:22.003Z,83.40
2022-11-20T16:49:00.966Z,83.80
2022-11-20T16:51:29.273Z,84.00
2022-11-20T16:53:57.895Z,83.80
2022-11-20T16:56:26.409Z,84.60
2022-11-20T16:58:55.162Z,84.50
2022-11-20T17:01:23.620Z,84.40
2022-11-20T17:03:58.393Z,83.90
2022-11-20T17:06:27.519Z,84.30
2022-11-20T17:08:56.166Z,84.30
2022-11-20T17:11:23.980Z,83.90
2022-11-20T17:13:51.962Z,84.30
2022-11-20T17:16:20.650Z,84.20
2022-11-20T17:18:50.300Z,84.00
2022-11-20T17:21:18.673Z,84.60
2022-11-20T17:23:46.570Z,84.70
2022-11-20T17:26:18.436Z,85.70
2022-11-20T17:28:46.779Z,84.60
2022-11-20T17:31:15.850Z,84.60
2022-11-20T17:33:44.106Z,84.50
2022-11-20T17:36:13.735Z,84.60
2022-11-20T17:38:42.114Z,85.10
2022-11-20T17:41:11.419Z,85.10
2022-11-20T17:43:39.249Z,85.30
2022-11-20T17:46:07.525Z,85.40
2022-11-20T17:48:37.504Z,85.80
2022-11-20T17:51:06.916Z,85.50
2022-11-20T17:53:36.321Z,86.10
2022-11-20T17:56:22.741Z,85.90
2022-11-20T17:58:51.378Z,85.50
2022-11-20T18:01:19.918Z,85.50
2022-11-20T18:03:47.545Z,85.50
2022-11-20T18:06:17.468Z,85.70
2022-11-20T18:08:45.326Z,86.10
2022-11-20T18:11:17.107Z,85.70
2022-11-20T18:14:03.948Z,85.60
2022-11-20T18:16:32.926Z,85.50
2022-11-20T18:19:00.739Z,85.70
2022-11-20T18:21:29.078Z,85.50
2022-11-20T18:23:57.105Z,85.20
2022-11-20T18:26:25.795Z,85.60
2022-11-20T18:28:53.718Z,86.30
2022-11-20T18:31:22.929Z,85.80
2022-11-20T18:33:53.524Z,86.00
2022-11-20T18:36:25.495Z,86.40
2022-11-20T18:38:54.652Z,85.80
2022-11-20T18:41:41.701Z,85.90
2022-11-20T18:44:32.554Z,85.90
2022-11-20T18:47:01.263Z,85.70
2022-11-20T18:49:28.789Z,85.90
2022-11-20T18:51:56.332Z,86.40
2022-11-20T18:54:24.057Z,86.30
2022-11-20T18:56:51.997Z,86.30
2022-11-20T18:59:20.296Z,86.40
2022-11-20T19:01:48.447Z,86.90
2022-11-20T19:04:18.250Z,86.80
2022-11-20T19:06:47.164Z,87.20
2022-11-20T19:09:14.732Z,87.20
2022-11-20T19:11:43.339Z,87.80
2022-11-20T19:14:11.087Z,88.40
2022-11-20T19:16:38.775Z,88.00
2022-11-20T19:19:09.045Z,88.50
2022-11-20T19:21:36.592Z,87.50
2022-11-20T19:24:04.835Z,87.70
2022-11-20T19:26:33.213Z,87.60
2022-11-20T19:29:01.533Z,87.50
2022-11-20T19:31:29.921Z,87.90
2022-11-20T19:33:59.261Z,87.80
2022-11-20T19:36:34.773Z,88.10
2022-11-20T19:39:03.171Z,87.80
2022-11-20T19:41:31.829Z,87.80
2022-11-20T19:44:02.479Z,88.00
2022-11-20T19:46:30.696Z,88.20
2022-11-20T19:48:58.274Z,88.60
2022-11-20T19:51:27.874Z,88.20
2022-11-20T19:53:56.222Z,88.80
2022-11-20T19:56:24.960Z,88.60
2022-11-20T19:58:56.001Z,88.60
2022-11-20T20:01:24.935Z,89.20
2022-11-20T20:03:52.880Z,89.20
2022-11-20T20:06:21.950Z,89.00
2022-11-20T20:08:59.700Z,88.70
2022-11-20T20:11:29.036Z,88.40
2022-11-20T20:13:57.466Z,88.30
2022-11-20T20:16:26.553Z,87.80
2022-11-20T20:19:03.633Z,87.90
2022-11-20T20:21:32.085Z,87.30
2022-11-20T20:24:00.003Z,87.60
2022-11-20T20:26:29.419Z,87.30
2022-11-20T20:28:57.510Z,87.60
2022-11-20T20:31:26.048Z,87.90
2022-11-20T20:33:53.603Z,88.00
2022-11-20T20:36:21.699Z,88.00
2022-11-20T20:38:52.324Z,88.20
2022-11-20T20:41:20.673Z,88.40
2022-11-20T20:44:06.279Z,88.50
2022-11-20T20:46:33.813Z,88.60
2022-11-20T20:49:01.660Z,88.60
2022-11-20T20:51:29.979Z,88.60
2022-11-20T20:53:57.636Z,88.60
2022-11-20T20:56:25.689Z,88.20
2022-11-20T20:58:53.195Z,88.60
2022-11-20T21:01:21.311Z,89.40
2022-11-20T21:03:48.902Z,88.50
2022-11-20T21:06:16.420Z,88.60
2022-11-20T21:08:44.754Z,89.20
2022-11-20T21:11:16.733Z,88.90
2022-11-20T21:13:46.082Z,89.00
2022-11-20T21:16:14.968Z,89.00
2022-11-20T21:18:42.625Z,89.10
2022-11-20T21:21:30.556Z,89.50
2022-11-20T21:23:58.086Z,89.20
2022-11-20T21:26:25.783Z,90.20
2022-11-20T21:28:53.652Z,90.00
2022-11-20T21:31:22.687Z,90.10
2022-11-20T21:33:51.124Z,90.20
2022-11-20T21:36:19.850Z,90.30
2022-11-20T21:38:47.939Z,90.20
2022-11-20T21:41:16.019Z,90.10
2022-11-20T21:43:44.424Z,90.00
2022-11-20T21:46:13.942Z,90.10
2022-11-20T21:48:42.285Z,90.20
2022-11-20T21:51:12.104Z,90.30
2022-11-20T21:53:40.505Z,90.50
2022-11-20T21:56:09.369Z,90.60
2022-11-20T21:58:37.419Z,90.30
2022-11-20T22:01:09.014Z,90.20
2022-11-20T22:03:37.499Z,90.00
2022-11-20T22:06:05.871Z,90.00
2022-11-20T22:08:35.072Z,90.80
2022-11-20T22:11:05.142Z,91.40
2022-11-20T22:13:50.941Z,90.90
2022-11-20T22:16:19.585Z,90.80
2022-11-20T22:18:51.305Z,90.60
2022-11-20T22:21:19.798Z,90.40
2022-11-20T22:23:47.535Z,90.80
2022-11-20T22:26:20.343Z,91.00
2022-11-20T22:28:51.342Z,91.00
2022-11-20T22:31:19.526Z,91.80
2022-11-20T22:33:47.378Z,91.70
2022-11-20T22:36:16.301Z,91.40
2022-11-20T22:38:44.010Z,91.60
2022-11-20T22:41:18.945Z,91.30
2022-11-20T22:43:46.907Z,91.50
2022-11-20T22:46:18.508Z,91.60
2022-11-20T22:48:50.243Z,91.20
2022-11-20T22:51:19.604Z,91.20
2022-11-20T22:53:47.596Z,91.30
2022-11-20T22:56:15.409Z,91.50
2022-11-20T22:58:44.215Z,91.20
2022-11-20T23:01:21.965Z,91.20
2022-11-20T23:03:50.850Z,91.10
2022-11-20T23:06:19.604Z,91.20
2022-11-20T23:08:48.081Z,91.10
2022-11-20T23:11:17.277Z,91.10
2022-11-20T23:13:45.416Z,91.00
2022-11-20T23:16:14.116Z,91.30
2022-11-20T23:18:42.038Z,91.00
2022-11-20T23:21:19.989Z,91.10
2022-11-20T23:23:54.523Z,91.40
2022-11-20T23:26:24.527Z,91.30
2022-11-20T23:28:53.561Z,91.40
2022-11-20T23:31:21.294Z,91.60
2022-11-20T23:33:48.815Z,91.70
2022-11-20T23:36:17.162Z,91.60
2022-11-20T23:38:44.716Z,91.90
2022-11-20T23:41:12.737Z,91.90
2022-11-20T23:43:40.344Z,91.80
2022-11-20T23:46:09.645Z,91.70
2022-11-20T23:48:40.156Z,91.60
2022-11-20T23:51:08.204Z,91.70
2022-11-20T23:53:36.000Z,92.30
2022-11-20T23:56:05.961Z,92.30
2022-11-20T23:58:37.411Z,92.40
